Portada
METAR-TAF:

METAR-TAF

Aeropuertos :

Belgrado, Serbia

Aeropuerto de Belgrado-Nikola Tesla

latitud: 44-49N, longitud: 020-17E, altitud: 96 m

Observación

El informe se hizo hace 17 minutos, a las 23:00 UTC
Viento 5 kt del sur
Temperatura 15°C
Humedad 55%
Presión 1018 hPa
Visibilidad 10 km o más
sin nubes por debajo de 1500 m y sin presencia de cumulonimbus.

METAR: LYBE 212300Z 17005KT CAVOK 15/06 Q1018 NOSIG

Hora: 01:17 (23:17 UTC)

Pronóstico

El informe se hizo hace 6 horas y 17 minutos, a las 17:00 UTC
Pronóstico válido del 21 a las 18 UTC al 22 a las 18 UTC
Viento 5 kt del oeste-suroeste
Visibilidad 10 km o más
sin nubes por debajo de 1500 m y sin presencia de cumulonimbus.

TAF: LYBE 211700Z 2118/2218 24005KT CAVOK TX26/2214Z TN10/2204Z

Observaciones y pronósticos meteorológicos de más de 4000 aeropuertos (mensajes METAR y TAF).

Los puntos amarillos y rojos representan las estaciones disponibles.

Ponga el ratón en el punto deseado para ver el nombre de la estación.

Haga clic para ver las observaciones y los pronósticos meteorológicos.

Para cambiar el mapa : haga clic en los botones verdes con una cruz de color negro para hacer un zoom, en el botón verde con un guión para alejar o en las flechas verdes para mapas adyacentes.


METAR-TAF: